Time;durP1;ratioP1;P1;durP2;ratioP2;P2;SDS_P1;SDS_P2;PMS_P1;PMS_P2;Temp;Humidity;BMP_temperature;BMP_pressure;BME280_temperature;BME280_humidity;BME280_pressure;Samples;Min_cycle;Max_cycle;Signal;HPM_P1;HPM_P2
2023/01/09 00:01:27;;;;;;;3.10;1.58;;;14.80;83.80;;;;;;4175892;28;20060;-59
2023/01/09 00:04:08;;;;;;;1.92;1.60;;;14.90;83.80;;;;;;4175383;28;20056;-61
2023/01/09 00:06:52;;;;;;;1.90;1.75;;;14.80;83.70;;;;;;4178550;28;20574;-60
2023/01/09 00:09:34;;;;;;;1.88;1.30;;;14.80;83.80;;;;;;4191979;28;20118;-60
2023/01/09 00:12:16;;;;;;;4.88;1.92;;;14.80;83.90;;;;;;4192421;28;20116;-60
2023/01/09 00:14:57;;;;;;;4.13;1.70;;;14.80;83.70;;;;;;4192469;28;20058;-60
2023/01/09 00:17:38;;;;;;;2.20;1.85;;;14.80;83.70;;;;;;4191410;28;20063;-60
2023/01/09 00:20:19;;;;;;;3.17;1.63;;;14.80;83.70;;;;;;4191867;28;20051;-60
2023/01/09 00:22:59;;;;;;;2.60;1.55;;;14.80;83.70;;;;;;4191998;28;20514;-60
2023/01/09 00:25:40;;;;;;;5.80;1.90;;;14.80;83.90;;;;;;4191893;28;20074;-60
2023/01/09 00:28:23;;;;;;;2.92;1.45;;;14.80;84.20;;;;;;4192013;28;20542;-59
2023/01/09 00:31:06;;;;;;;2.75;1.83;;;14.80;84.30;;;;;;4192065;28;20055;-59
2023/01/09 00:33:54;;;;;;;3.45;2.00;;;14.80;84.20;;;;;;4191966;28;20059;-59
2023/01/09 00:36:35;;;;;;;3.53;1.73;;;14.80;84.20;;;;;;4190601;28;20051;-59
2023/01/09 00:39:17;;;;;;;2.88;1.50;;;14.80;84.40;;;;;;4192135;28;20075;-59
2023/01/09 00:41:57;;;;;;;3.40;1.60;;;14.80;84.30;;;;;;4192363;28;20059;-60
2023/01/09 00:44:44;;;;;;;1.85;1.40;;;14.80;85.30;;;;;;4191321;28;20802;-60
2023/01/09 00:47:31;;;;;;;2.75;1.30;;;14.70;84.70;;;;;;4190798;28;20060;-60
2023/01/09 00:50:18;;;;;;;3.95;1.60;;;14.70;84.90;;;;;;4191874;28;20511;-60
2023/01/09 00:53:03;;;;;;;2.53;1.20;;;14.70;85.40;;;;;;4191960;28;20051;-60
2023/01/09 00:55:44;;;;;;;1.17;0.90;;;14.70;85.60;;;;;;4192390;28;20055;-60
2023/01/09 00:58:25;;;;;;;1.80;0.80;;;14.70;85.90;;;;;;4175342;28;20048;-60
2023/01/09 01:01:07;;;;;;;0.32;0.32;;;14.70;85.60;;;;;;4175478;28;20198;-59
2023/01/09 01:03:48;;;;;;;0.70;0.50;;;14.70;85.60;;;;;;4175418;28;20055;-60
2023/01/09 01:09:27;;;;;;;0.80;0.47;;;14.70;85.80;;;;;;4189957;28;20070;-59
2023/01/09 01:12:08;;;;;;;0.98;0.50;;;14.70;85.90;;;;;;4191988;28;20454;-59
2023/01/09 01:14:48;;;;;;;0.70;0.30;;;14.60;85.90;;;;;;4191931;28;20121;-60
2023/01/09 01:17:33;;;;;;;0.80;0.47;;;14.60;85.80;;;;;;4191696;28;20352;-61
2023/01/09 01:20:16;;;;;;;0.52;0.30;;;14.60;85.70;;;;;;4192012;28;20055;-60
2023/01/09 01:22:57;;;;;;;0.38;0.30;;;14.70;85.70;;;;;;4191968;28;20055;-60
2023/01/09 01:25:39;;;;;;;1.15;0.30;;;14.60;85.50;;;;;;4179064;28;20067;-60
2023/01/09 01:28:19;;;;;;;;;;;14.60;85.30;;;;;;4179505;28;20044;-60
2023/01/09 01:31:01;;;;;;;0.30;0.30;;;14.60;85.30;;;;;;4195184;28;19930;-60
2023/01/09 01:33:43;;;;;;;0.70;0.40;;;14.60;86.00;;;;;;4195144;28;20048;-60
2023/01/09 01:36:23;;;;;;;0.30;0.30;;;14.60;86.30;;;;;;4194835;28;20565;-60
2023/01/09 01:39:04;;;;;;;0.20;0.20;;;14.70;86.40;;;;;;4195112;28;20122;-60
2023/01/09 01:41:45;;;;;;;0.47;0.35;;;14.80;86.10;;;;;;4193566;28;20048;-60
2023/01/09 01:45:03;;;;;;;0.33;0.30;;;14.90;85.60;;;;;;4194956;28;20051;-59
2023/01/09 01:47:50;;;;;;;0.80;0.50;;;15.00;85.30;;;;;;4177844;28;20138;-60
2023/01/09 01:50:38;;;;;;;0.43;0.43;;;15.00;85.10;;;;;;4177996;28;20488;-60
2023/01/09 01:53:22;;;;;;;1.45;0.60;;;15.10;84.60;;;;;;4178000;28;20068;-60
2023/01/09 01:56:10;;;;;;;0.50;0.50;;;15.10;84.60;;;;;;4182443;28;20070;-60
2023/01/09 01:58:55;;;;;;;0.77;0.77;;;15.20;84.40;;;;;;4194447;28;20059;-60
2023/01/09 02:01:39;;;;;;;3.53;1.00;;;15.20;84.40;;;;;;4194564;28;20056;-60
2023/01/09 02:04:20;;;;;;;2.58;1.00;;;15.30;84.30;;;;;;4194479;28;20051;-60
2023/01/09 02:07:07;;;;;;;3.90;0.90;;;15.30;84.20;;;;;;4194219;28;20070;-60
2023/01/09 02:09:48;;;;;;;1.45;1.00;;;15.30;84.00;;;;;;4194581;28;20055;-60
2023/01/09 02:12:29;;;;;;;1.90;0.82;;;15.30;83.90;;;;;;4194143;28;20392;-60
2023/01/09 02:15:13;;;;;;;2.13;1.10;;;15.30;83.90;;;;;;4193714;28;20494;-59
2023/01/09 02:18:14;;;;;;;1.35;0.77;;;15.30;83.80;;;;;;4193465;28;20048;-60
2023/01/09 02:21:00;;;;;;;1.58;0.98;;;15.30;84.60;;;;;;4193969;28;20055;-60
2023/01/09 02:24:08;;;;;;;3.33;1.30;;;15.30;83.90;;;;;;4194059;28;20048;-59
2023/01/09 02:27:19;;;;;;;3.22;1.05;;;15.40;83.70;;;;;;4193816;28;20059;-60
2023/01/09 02:30:31;;;;;;;2.20;0.90;;;15.40;83.40;;;;;;4193698;28;20055;-60
2023/01/09 02:33:25;;;;;;;0.68;0.68;;;15.50;83.30;;;;;;4193790;28;20063;-60
2023/01/09 02:36:25;;;;;;;2.35;0.98;;;15.40;83.30;;;;;;4193532;28;20564;-60
2023/01/09 02:39:21;;;;;;;1.20;0.90;;;15.50;83.00;;;;;;4192236;28;20056;-60
2023/01/09 02:42:09;;;;;;;1.98;0.70;;;15.50;83.00;;;;;;4192660;28;20403;-60
2023/01/09 02:44:50;;;;;;;2.47;0.95;;;15.50;83.00;;;;;;4193225;28;20059;-60
2023/01/09 02:47:43;;;;;;;2.40;1.40;;;15.50;83.00;;;;;;4193779;28;20056;-60
2023/01/09 02:50:33;;;;;;;2.15;0.95;;;15.50;82.70;;;;;;4193883;28;20063;-59
2023/01/09 02:53:44;;;;;;;1.20;1.02;;;15.60;82.80;;;;;;4193901;28;20118;-60
2023/01/09 02:56:40;;;;;;;2.17;1.13;;;15.50;82.50;;;;;;4176890;28;20056;-60
2023/01/09 02:59:27;;;;;;;1.95;1.00;;;15.60;83.70;;;;;;4175876;28;20051;-59
2023/01/09 03:02:28;;;;;;;2.58;1.15;;;15.60;82.80;;;;;;4198384;27;20573;-61
2023/01/09 03:05:17;;;;;;;4.45;1.25;;;15.60;82.50;;;;;;4199811;27;20094;-59
2023/01/09 03:08:02;;;;;;;4.30;1.38;;;15.60;82.50;;;;;;4193272;28;20051;-59
2023/01/09 03:10:48;;;;;;;5.18;1.50;;;15.60;82.40;;;;;;4193461;28;20059;-59
2023/01/09 03:13:33;;;;;;;3.50;1.50;;;15.70;82.40;;;;;;4197169;27;20133;-60
2023/01/09 03:16:20;;;;;;;2.40;1.15;;;15.70;82.20;;;;;;4210054;27;20059;-60
2023/01/09 03:19:02;;;;;;;3.38;1.30;;;15.80;82.10;;;;;;4208027;27;20047;-60
2023/01/09 03:21:46;;;;;;;1.92;1.17;;;15.80;82.00;;;;;;4209871;27;20058;-60
2023/01/09 03:24:27;;;;;;;4.00;2.00;;;15.70;82.00;;;;;;4196557;27;20093;-60
2023/01/09 03:27:08;;;;;;;3.08;1.20;;;15.70;82.00;;;;;;4193536;28;20048;-60
2023/01/09 03:29:50;;;;;;;3.70;1.10;;;15.80;82.00;;;;;;4193451;28;20190;-60
2023/01/09 03:32:30;;;;;;;3.05;1.20;;;15.80;81.90;;;;;;4192848;28;20588;-61
2023/01/09 03:35:11;;;;;;;1.88;1.27;;;15.80;81.90;;;;;;4185671;28;20076;-59
2023/01/09 03:37:54;;;;;;;2.85;1.10;;;15.80;81.80;;;;;;4209848;27;20129;-60
2023/01/09 03:40:35;;;;;;;2.00;1.30;;;15.80;81.60;;;;;;4209725;27;20130;-60
2023/01/09 03:43:16;;;;;;;2.30;1.30;;;15.90;81.80;;;;;;4206428;27;20751;-60
2023/01/09 03:45:58;;;;;;;2.33;1.08;;;15.80;81.60;;;;;;4193047;28;20055;-60
2023/01/09 03:48:39;;;;;;;1.90;1.20;;;15.80;81.60;;;;;;4192604;28;20082;-60
2023/01/09 03:51:20;;;;;;;4.28;1.42;;;15.80;81.60;;;;;;4192240;28;20056;-60
2023/01/09 03:54:02;;;;;;;2.65;1.90;;;15.70;81.70;;;;;;4198772;27;20051;-59
2023/01/09 03:56:43;;;;;;;3.40;1.30;;;15.70;81.80;;;;;;4192698;28;20190;-60
2023/01/09 03:59:24;;;;;;;3.13;1.40;;;15.70;81.90;;;;;;4192632;28;20682;-60
2023/01/09 04:02:06;;;;;;;4.97;1.50;;;15.70;81.80;;;;;;4192746;28;20407;-60
2023/01/09 04:04:47;;;;;;;2.38;1.40;;;15.80;81.70;;;;;;4203474;27;20121;-60
2023/01/09 04:07:28;;;;;;;2.22;1.23;;;15.80;81.80;;;;;;4209274;27;20051;-60
2023/01/09 04:10:11;;;;;;;5.07;2.03;;;15.80;81.80;;;;;;4207624;27;20055;-60
2023/01/09 04:12:52;;;;;;;2.67;1.58;;;15.70;81.80;;;;;;4209411;27;20395;-60
2023/01/09 04:15:33;;;;;;;2.53;1.50;;;15.80;81.80;;;;;;4176069;28;20052;-60
2023/01/09 04:18:14;;;;;;;2.85;1.30;;;15.80;81.60;;;;;;4176055;28;20813;-60
2023/01/09 04:20:55;;;;;;;1.48;1.38;;;15.80;81.60;;;;;;4176111;28;20051;-59
2023/01/09 04:23:36;;;;;;;5.07;1.52;;;15.80;81.50;;;;;;4184920;27;20055;-60
2023/01/09 04:26:18;;;;;;;1.83;1.60;;;15.80;81.60;;;;;;4200228;27;20058;-61
2023/01/09 04:28:59;;;;;;;3.42;1.63;;;15.80;81.60;;;;;;4208901;27;20067;-60
2023/01/09 04:31:40;;;;;;;13.43;2.25;;;15.80;81.50;;;;;;4209036;27;20383;-59
2023/01/09 04:34:24;;;;;;;3.42;1.88;;;15.90;81.50;;;;;;4196346;27;20514;-60
2023/01/09 04:37:05;;;;;;;2.88;1.75;;;15.80;81.20;;;;;;4192063;28;20050;-60
2023/01/09 04:39:46;;;;;;;3.47;1.67;;;15.90;81.30;;;;;;4191807;28;20752;-61
2023/01/09 04:42:29;;;;;;;3.10;1.60;;;15.80;81.20;;;;;;4191616;28;20850;-60
2023/01/09 04:45:11;;;;;;;3.95;1.63;;;15.90;81.50;;;;;;4175101;28;20056;-60
2023/01/09 04:47:51;;;;;;;4.35;1.73;;;15.90;80.90;;;;;;4173921;28;20107;-60
2023/01/09 04:50:32;;;;;;;3.00;1.58;;;15.90;80.90;;;;;;4175428;28;20060;-60
2023/01/09 04:53:13;;;;;;;2.70;1.85;;;15.90;81.00;;;;;;4192006;28;20467;-60
2023/01/09 04:55:54;;;;;;;2.07;1.80;;;15.80;81.10;;;;;;4192339;28;20052;-60
2023/01/09 04:58:37;;;;;;;5.32;1.92;;;15.90;81.20;;;;;;4192144;28;20055;-60
2023/01/09 05:01:18;;;;;;;2.17;1.88;;;15.90;80.90;;;;;;4191373;28;20055;-60
2023/01/09 05:03:58;;;;;;;5.57;2.38;;;15.90;80.80;;;;;;4203345;27;20116;-60
2023/01/09 05:06:40;;;;;;;3.67;1.80;;;15.90;80.80;;;;;;4212412;27;20498;-60
2023/01/09 05:09:21;;;;;;;2.25;1.95;;;16.00;80.80;;;;;;4212332;27;20136;-60
2023/01/09 05:12:02;;;;;;;2.30;2.17;;;16.00;80.40;;;;;;4208976;27;20536;-60
2023/01/09 05:14:44;;;;;;;2.78;1.90;;;16.00;80.20;;;;;;4212438;27;20051;-60
2023/01/09 05:17:25;;;;;;;5.00;2.22;;;16.00;80.20;;;;;;4210206;27;20079;-60
2023/01/09 05:20:07;;;;;;;2.60;2.30;;;16.00;80.30;;;;;;4212135;27;20123;-60
2023/01/09 05:22:48;;;;;;;2.50;1.90;;;16.00;80.20;;;;;;4208761;27;20113;-60
2023/01/09 05:25:29;;;;;;;3.50;1.92;;;16.00;80.10;;;;;;4211896;27;20046;-60
2023/01/09 05:28:10;;;;;;;3.10;2.05;;;16.00;80.00;;;;;;4212048;27;20193;-60
2023/01/09 05:30:52;;;;;;;4.80;2.30;;;16.00;80.10;;;;;;4211235;27;20097;-60
2023/01/09 05:33:33;;;;;;;4.07;2.88;;;16.00;79.90;;;;;;4211482;27;20047;-60
2023/01/09 05:36:13;;;;;;;2.80;2.35;;;16.00;80.00;;;;;;4211474;27;20134;-60
2023/01/09 05:38:56;;;;;;;3.95;2.80;;;16.00;79.90;;;;;;4211633;27;20097;-60
2023/01/09 05:41:37;;;;;;;6.32;3.13;;;16.00;80.20;;;;;;4205193;27;20126;-61
2023/01/09 05:44:18;;;;;;;4.85;2.90;;;15.90;80.10;;;;;;4194203;28;20059;-60
2023/01/09 05:47:01;;;;;;;3.83;3.42;;;15.90;80.30;;;;;;4194726;28;20051;-60
2023/01/09 05:49:42;;;;;;;4.78;4.05;;;15.90;80.30;;;;;;4194362;28;20047;-60
2023/01/09 05:52:24;;;;;;;7.15;3.55;;;15.90;80.20;;;;;;4194297;28;20411;-60
2023/01/09 05:55:06;;;;;;;;;;;15.90;80.10;;;;;;4194733;28;20186;-60
2023/01/09 05:57:46;;;;;;;5.40;3.55;;;15.90;80.30;;;;;;4194695;28;19931;-60
2023/01/09 06:00:27;;;;;;;8.82;4.05;;;15.90;80.50;;;;;;4194340;28;20602;-59
2023/01/09 06:03:09;;;;;;;8.00;5.28;;;15.80;80.40;;;;;;4193752;28;20051;-60
2023/01/09 06:05:51;;;;;;;9.65;4.50;;;15.80;80.60;;;;;;4193895;28;20121;-60
2023/01/09 06:08:31;;;;;;;;;;;15.80;80.70;;;;;;4193850;28;20052;-60
2023/01/09 06:11:12;;;;;;;6.47;5.13;;;15.80;80.90;;;;;;4194509;28;19931;-60
2023/01/09 06:13:53;;;;;;;6.00;5.22;;;15.70;81.00;;;;;;4193862;28;20642;-60
2023/01/09 06:16:34;;;;;;;6.03;5.43;;;15.70;81.10;;;;;;4193574;28;20056;-60
2023/01/09 06:19:16;;;;;;;7.10;5.22;;;15.70;81.20;;;;;;4193660;28;20059;-60
2023/01/09 06:21:57;;;;;;;6.57;5.32;;;15.80;81.20;;;;;;4193509;28;20047;-60
2023/01/09 06:24:38;;;;;;;8.75;6.25;;;15.80;80.70;;;;;;4193730;28;20047;-60
2023/01/09 06:27:19;;;;;;;6.63;6.03;;;15.90;80.60;;;;;;4193788;28;20533;-60
2023/01/09 06:30:00;;;;;;;10.40;6.00;;;16.00;80.30;;;;;;4193705;28;20060;-60
2023/01/09 06:32:41;;;;;;;7.57;6.00;;;16.00;80.10;;;;;;4194041;28;20059;-60
2023/01/09 06:35:23;;;;;;;10.95;6.25;;;16.00;80.00;;;;;;4193903;28;20404;-60
2023/01/09 06:38:05;;;;;;;8.52;6.60;;;16.00;79.80;;;;;;4193748;28;20051;-60
2023/01/09 06:40:46;;;;;;;8.00;6.35;;;16.00;79.60;;;;;;4193246;28;20055;-60
2023/01/09 06:43:26;;;;;;;7.68;6.05;;;16.00;79.60;;;;;;4193993;28;20510;-60
2023/01/09 06:46:08;;;;;;;;;;;15.90;79.70;;;;;;4194823;28;20085;-60
2023/01/09 06:48:49;;;;;;;10.20;6.55;;;15.90;79.90;;;;;;4193852;28;19931;-60
2023/01/09 06:51:32;;;;;;;9.80;6.70;;;15.80;80.10;;;;;;4177489;28;20052;-60
2023/01/09 06:54:13;;;;;;;12.45;7.05;;;15.80;80.40;;;;;;4177430;28;20408;-60
2023/01/09 06:56:54;;;;;;;10.18;6.53;;;15.80;81.60;;;;;;4176980;28;20114;-59
2023/01/09 06:59:34;;;;;;;8.70;6.53;;;15.80;81.10;;;;;;4192475;28;20074;-59
2023/01/09 07:02:18;;;;;;;8.32;6.90;;;15.90;81.10;;;;;;4193253;28;20158;-60
2023/01/09 07:04:59;;;;;;;7.43;6.43;;;16.10;80.50;;;;;;4193345;28;20137;-60
2023/01/09 07:07:41;;;;;;;8.43;6.72;;;16.20;79.90;;;;;;4193090;28;20059;-60
2023/01/09 07:10:23;;;;;;;9.02;6.38;;;16.30;79.40;;;;;;4190644;28;20106;-59
2023/01/09 07:13:04;;;;;;;7.13;6.43;;;16.40;79.00;;;;;;4193282;28;20055;-59
2023/01/09 07:15:45;;;;;;;6.68;6.07;;;16.40;78.70;;;;;;4193279;28;20048;-60
2023/01/09 07:18:26;;;;;;;7.22;6.22;;;16.40;78.50;;;;;;4192980;28;20047;-60
2023/01/09 07:21:07;;;;;;;7.35;5.90;;;16.50;78.20;;;;;;4192652;28;20067;-59
2023/01/09 07:23:49;;;;;;;7.70;5.90;;;16.60;77.70;;;;;;4192989;28;20415;-59
2023/01/09 07:26:30;;;;;;;8.85;5.57;;;16.70;77.10;;;;;;4184112;28;20047;-62
2023/01/09 07:29:11;;;;;;;6.30;5.68;;;16.70;76.90;;;;;;4189441;28;20048;-61
2023/01/09 07:31:52;;;;;;;5.97;5.05;;;16.70;76.80;;;;;;4177119;28;20403;-61
2023/01/09 07:34:33;;;;;;;5.95;5.38;;;16.70;77.00;;;;;;4192696;28;20510;-61
2023/01/09 07:37:14;;;;;;;7.30;5.53;;;16.60;77.00;;;;;;4185118;28;20075;-60
2023/01/09 07:39:56;;;;;;;6.32;5.68;;;16.60;77.20;;;;;;4176431;28;20064;-62
2023/01/09 07:42:37;;;;;;;7.05;5.05;;;16.50;77.90;;;;;;4176202;28;20175;-61
2023/01/09 07:45:18;;;;;;;8.07;4.80;;;16.40;78.00;;;;;;4192679;28;20137;-60
2023/01/09 07:47:59;;;;;;;7.53;5.57;;;16.50;77.90;;;;;;4192643;28;20055;-60
2023/01/09 07:50:40;;;;;;;5.30;4.80;;;16.50;77.80;;;;;;4192681;28;20407;-61
2023/01/09 07:53:21;;;;;;;8.02;5.30;;;16.50;77.70;;;;;;4192726;28;20058;-61
2023/01/09 07:56:03;;;;;;;5.33;4.77;;;16.50;77.80;;;;;;4192853;28;20052;-60
2023/01/09 07:58:44;;;;;;;6.60;4.88;;;16.50;77.70;;;;;;4192488;28;20378;-60
2023/01/09 08:01:25;;;;;;;4.57;4.18;;;16.60;77.50;;;;;;4186411;28;20384;-60
2023/01/09 08:04:07;;;;;;;5.38;4.50;;;16.60;77.40;;;;;;4173768;28;20263;-60
2023/01/09 08:06:48;;;;;;;4.40;4.03;;;16.60;77.40;;;;;;4184408;28;20438;-60
2023/01/09 08:09:29;;;;;;;6.25;4.05;;;16.60;77.40;;;;;;4172519;28;20056;-59
2023/01/09 08:12:11;;;;;;;5.80;4.30;;;16.60;77.30;;;;;;4184670;28;20399;-60
2023/01/09 08:14:52;;;;;;;3.47;3.20;;;16.60;77.30;;;;;;4178125;28;20074;-59
2023/01/09 08:17:33;;;;;;;4.80;3.35;;;16.60;77.30;;;;;;4180037;28;20105;-58
2023/01/09 08:20:16;;;;;;;3.88;3.53;;;16.60;77.30;;;;;;4186573;28;20408;-59
2023/01/09 08:22:56;;;;;;;3.85;3.33;;;16.50;77.40;;;;;;4179505;28;20407;-59
2023/01/09 08:25:38;;;;;;;6.18;3.45;;;16.40;77.40;;;;;;4180119;28;20506;-59
2023/01/09 08:28:20;;;;;;;5.05;2.95;;;16.40;78.00;;;;;;4188666;28;20392;-59
2023/01/09 08:31:01;;;;;;;5.53;3.30;;;16.30;78.00;;;;;;4174019;28;20071;-59
2023/01/09 08:33:44;;;;;;;4.45;3.45;;;16.20;78.30;;;;;;4173661;28;20088;-59
2023/01/09 08:36:24;;;;;;;3.05;2.70;;;16.10;78.60;;;;;;4189367;28;20067;-59
2023/01/09 08:39:05;;;;;;;4.60;3.13;;;16.10;79.00;;;;;;4188811;28;20063;-59
2023/01/09 08:47:45;;;;;;;5.40;2.85;;;15.90;78.40;;;;;;4173313;28;20063;-59
2023/01/09 08:50:26;;;;;;;4.70;2.67;;;15.80;78.20;;;;;;4189263;28;20055;-59
2023/01/09 08:53:07;;;;;;;4.00;2.78;;;15.80;78.30;;;;;;4174312;28;20052;-59
2023/01/09 08:55:48;;;;;;;4.93;3.35;;;15.80;79.30;;;;;;4173313;28;20051;-58
2023/01/09 08:58:29;;;;;;;5.78;2.58;;;15.80;78.30;;;;;;4187671;28;20047;-59
2023/01/09 09:01:12;;;;;;;3.15;2.63;;;15.80;77.90;;;;;;4186340;28;20085;-59
2023/01/09 09:03:53;;;;;;;5.85;2.60;;;15.90;77.40;;;;;;4188946;28;20540;-58
2023/01/09 09:06:34;;;;;;;9.75;2.72;;;15.90;76.80;;;;;;4189379;28;20376;-60
2023/01/09 09:09:15;;;;;;;5.68;2.78;;;16.00;76.50;;;;;;4189169;28;20117;-60
2023/01/09 09:11:56;;;;;;;3.88;2.55;;;16.00;76.20;;;;;;4183950;28;20058;-61
2023/01/09 09:17:39;;;;;;;4.82;2.20;;;15.90;76.20;;;;;;4178368;28;20175;-60
2023/01/09 09:20:20;;;;;;;3.65;2.15;;;15.90;75.60;;;;;;4173609;28;20056;-60
2023/01/09 09:23:01;;;;;;;4.47;2.13;;;15.90;75.30;;;;;;4179791;28;20048;-59
2023/01/09 09:25:42;;;;;;;7.22;2.45;;;15.90;75.30;;;;;;4173928;28;20142;-60
2023/01/09 09:28:24;;;;;;;2.38;2.13;;;15.90;75.20;;;;;;4173343;28;20060;-60
2023/01/09 09:31:05;;;;;;;7.00;2.28;;;15.80;75.10;;;;;;4183060;28;20060;-60
2023/01/09 09:33:48;;;;;;;3.85;2.05;;;15.70;75.20;;;;;;4176123;28;20056;-60
2023/01/09 09:36:29;;;;;;;4.07;2.22;;;15.70;75.40;;;;;;4172968;28;20077;-61
2023/01/09 09:39:10;;;;;;;2.67;1.80;;;15.70;75.20;;;;;;4178561;28;20134;-60
2023/01/09 09:45:31;;;;;;;3.38;1.55;;;15.70;75.10;;;;;;4184326;28;20212;-60
2023/01/09 09:48:27;;;;;;;4.60;2.17;;;15.70;75.80;;;;;;4168378;28;20076;-60
2023/01/09 09:51:35;;;;;;;3.10;1.80;;;15.70;76.10;;;;;;4175948;28;20380;-60
2023/01/09 09:54:21;;;;;;;3.05;1.65;;;15.70;76.40;;;;;;4175740;28;20191;-61
2023/01/09 09:57:04;;;;;;;3.00;1.52;;;15.70;77.00;;;;;;4185318;27;20056;-61
2023/01/09 09:59:50;;;;;;;3.08;2.13;;;15.70;77.20;;;;;;4175777;28;20075;-59
2023/01/09 10:02:40;;;;;;;3.45;1.95;;;15.70;77.70;;;;;;4191279;28;20097;-61
2023/01/09 10:05:26;;;;;;;4.40;2.20;;;15.60;78.70;;;;;;4184280;28;20518;-60
2023/01/09 10:08:23;;;;;;;2.88;2.38;;;15.60;78.20;;;;;;4178499;28;20051;-60
2023/01/09 10:11:04;;;;;;;2.08;1.60;;;15.60;78.20;;;;;;4182970;28;20460;-60
2023/01/09 10:17:03;;;;;;;4.68;1.85;;;15.60;79.50;;;;;;4166948;28;20102;-59
2023/01/09 10:20:08;;;;;;;4.65;1.75;;;15.70;80.10;;;;;;4159321;28;20435;-62
2023/01/09 10:22:54;;;;;;;4.40;1.60;;;15.80;78.80;;;;;;4158860;28;20403;-59
2023/01/09 10:25:43;;;;;;;3.50;1.70;;;15.90;79.80;;;;;;4159315;28;20084;-59
2023/01/09 10:28:44;;;;;;;1.80;1.58;;;15.90;78.90;;;;;;4174986;28;20067;-60
2023/01/09 10:31:32;;;;;;;6.63;2.20;;;15.90;78.90;;;;;;4187220;28;20122;-59
2023/01/09 10:34:27;;;;;;;4.10;1.95;;;15.90;79.30;;;;;;4179229;28;20419;-62
2023/01/09 10:37:13;;;;;;;3.13;1.88;;;15.90;79.50;;;;;;4178212;28;20068;-61
2023/01/09 10:39:57;;;;;;;5.38;1.75;;;15.90;79.90;;;;;;4176933;28;20060;-60
2023/01/09 10:42:44;;;;;;;3.95;2.05;;;15.90;80.40;;;;;;4190749;28;20056;-61
2023/01/09 10:45:29;;;;;;;3.45;1.95;;;15.90;80.50;;;;;;4174407;28;20214;-60
2023/01/09 10:48:19;;;;;;;3.83;1.95;;;15.90;80.60;;;;;;4175391;28;20609;-59
2023/01/09 10:51:00;;;;;;;7.15;1.70;;;15.80;81.60;;;;;;4186404;28;20055;-58
2023/01/09 10:53:45;;;;;;;2.88;1.95;;;15.80;80.90;;;;;;4175311;28;20048;-60
2023/01/09 10:56:29;;;;;;;5.22;1.90;;;15.80;81.10;;;;;;4187290;28;20052;-60
2023/01/09 10:59:11;;;;;;;4.20;1.85;;;15.80;81.30;;;;;;4178606;28;20756;-59
2023/01/09 11:01:54;;;;;;;4.55;2.00;;;15.70;81.30;;;;;;4186344;28;20510;-59
2023/01/09 11:04:39;;;;;;;3.67;1.45;;;15.70;81.50;;;;;;4176845;28;20087;-61
2023/01/09 11:07:24;;;;;;;2.05;1.40;;;15.70;81.60;;;;;;4182718;28;20075;-60
2023/01/09 11:10:08;;;;;;;4.70;1.88;;;15.60;81.80;;;;;;4174932;28;20252;-59
2023/01/09 11:12:49;;;;;;;7.75;3.85;;;15.60;81.90;;;;;;4175036;28;20064;-59
2023/01/09 11:15:32;;;;;;;3.50;1.60;;;15.60;82.00;;;;;;4175018;28;20088;-59
2023/01/09 11:18:18;;;;;;;3.63;1.40;;;15.50;82.10;;;;;;4185301;28;20110;-59
2023/01/09 11:21:13;;;;;;;2.90;1.80;;;15.50;82.10;;;;;;4186758;28;20129;-59
2023/01/09 11:23:54;;;;;;;3.35;1.60;;;15.40;82.00;;;;;;4189400;28;20051;-59
2023/01/09 11:26:35;;;;;;;6.43;1.58;;;15.40;82.60;;;;;;4185864;28;20455;-59
2023/01/09 11:29:18;;;;;;;3.00;1.73;;;15.40;82.60;;;;;;4189930;28;20194;-60
2023/01/09 11:32:01;;;;;;;4.57;1.50;;;15.30;82.50;;;;;;4176279;28;20487;-60
2023/01/09 11:34:46;;;;;;;2.78;1.50;;;15.30;82.50;;;;;;4173276;28;20067;-60
2023/01/09 11:37:29;;;;;;;4.05;1.83;;;15.30;82.50;;;;;;4186836;28;20062;-59
2023/01/09 11:40:19;;;;;;;3.13;1.80;;;15.20;82.50;;;;;;4177760;28;20052;-59
2023/01/09 11:43:12;;;;;;;3.60;1.85;;;15.20;82.50;;;;;;4178347;28;20125;-59
2023/01/09 11:45:56;;;;;;;5.72;2.05;;;15.10;82.80;;;;;;4157361;28;20048;-59
2023/01/09 11:48:55;;;;;;;3.40;2.15;;;15.20;83.30;;;;;;4158984;28;20542;-59
2023/01/09 11:51:36;;;;;;;2.78;1.65;;;15.20;83.20;;;;;;4158328;28;20072;-59
2023/01/09 11:54:24;;;;;;;3.75;1.60;;;15.20;83.20;;;;;;4173141;28;20242;-59
2023/01/09 11:57:05;;;;;;;4.72;2.50;;;15.20;83.10;;;;;;4157551;28;20060;-59
2023/01/09 11:59:46;;;;;;;3.88;2.00;;;15.20;83.10;;;;;;4168591;28;20052;-59
2023/01/09 12:02:50;;;;;;;4.78;1.95;;;15.20;83.10;;;;;;4157880;28;20623;-59
2023/01/09 12:05:41;;;;;;;2.45;1.83;;;15.20;83.10;;;;;;4156461;28;20056;-59
2023/01/09 12:08:33;;;;;;;4.50;1.85;;;15.20;83.20;;;;;;4157540;28;20064;-59
2023/01/09 12:11:30;;;;;;;2.42;2.20;;;15.20;83.20;;;;;;4162906;28;20055;-60
2023/01/09 12:14:32;;;;;;;2.92;1.75;;;15.10;83.30;;;;;;4164246;28;20064;-59
2023/01/09 12:17:37;;;;;;;3.22;2.10;;;15.10;83.30;;;;;;4172795;28;20495;-59
2023/01/09 12:20:38;;;;;;;3.65;2.15;;;15.10;83.60;;;;;;4159506;28;20064;-59
2023/01/09 12:23:28;;;;;;;3.00;1.95;;;15.20;83.70;;;;;;4157876;28;20138;-59
2023/01/09 12:26:17;;;;;;;4.60;2.40;;;15.20;83.70;;;;;;4173676;28;20571;-59
2023/01/09 12:29:29;;;;;;;3.22;2.38;;;15.20;83.70;;;;;;4183241;28;20142;-59
2023/01/09 12:32:27;;;;;;;8.68;2.50;;;15.20;83.40;;;;;;4173741;28;20055;-59
2023/01/09 12:35:22;;;;;;;5.40;2.70;;;15.20;83.60;;;;;;4173397;28;20153;-59
2023/01/09 12:38:33;;;;;;;4.55;2.53;;;15.20;83.50;;;;;;4188600;28;20060;-60
2023/01/09 12:41:44;;;;;;;3.88;2.40;;;15.10;83.50;;;;;;4183485;28;20625;-60
2023/01/09 12:44:45;;;;;;;4.28;2.65;;;15.10;83.80;;;;;;4171613;28;20068;-59
2023/01/09 12:47:45;;;;;;;2.65;2.45;;;15.10;83.80;;;;;;4189199;28;20060;-59
2023/01/09 12:51:00;;;;;;;5.78;2.67;;;15.10;83.80;;;;;;4183089;28;20149;-59
2023/01/09 12:53:46;;;;;;;5.80;2.78;;;15.10;83.70;;;;;;4176768;28;20515;-58
2023/01/09 12:56:33;;;;;;;3.35;2.72;;;15.10;84.00;;;;;;4178383;28;20055;-59
2023/01/09 12:59:29;;;;;;;3.90;2.50;;;15.10;83.90;;;;;;4178586;28;20174;-58
2023/01/09 13:02:21;;;;;;;4.45;2.47;;;15.10;83.80;;;;;;4183506;28;20069;-58
2023/01/09 13:05:08;;;;;;;4.07;2.30;;;15.10;83.80;;;;;;4176582;28;20051;-59
2023/01/09 13:07:54;;;;;;;3.30;2.10;;;15.20;84.70;;;;;;4180573;28;20506;-58
2023/01/09 13:10:40;;;;;;;5.28;2.70;;;15.10;83.70;;;;;;4172812;28;20044;-58
2023/01/09 13:13:29;;;;;;;3.25;2.55;;;15.10;83.70;;;;;;4173278;28;20565;-58
2023/01/09 13:16:14;;;;;;;4.15;2.63;;;15.10;83.70;;;;;;4183764;28;20494;-58
2023/01/09 13:19:00;;;;;;;4.82;2.60;;;15.10;83.80;;;;;;4180018;28;20166;-59
2023/01/09 13:21:41;;;;;;;4.90;3.28;;;15.10;83.80;;;;;;4179746;28;20052;-59
2023/01/09 13:24:30;;;;;;;3.08;2.80;;;15.00;83.80;;;;;;4173338;28;20048;-59
2023/01/09 13:27:17;;;;;;;3.92;2.88;;;15.00;83.90;;;;;;4177613;28;20495;-59
2023/01/09 13:30:03;;;;;;;3.40;2.75;;;15.00;84.00;;;;;;4187822;28;20121;-60
2023/01/09 13:32:58;;;;;;;3.85;3.03;;;15.00;84.90;;;;;;4182159;28;20056;-59
2023/01/09 13:35:49;;;;;;;3.83;3.03;;;15.00;84.20;;;;;;4180243;28;20138;-60
2023/01/09 13:38:33;;;;;;;8.55;3.58;;;14.90;84.30;;;;;;4179097;28;20102;-60
2023/01/09 13:44:27;;;;;;;4.93;3.28;;;14.90;84.60;;;;;;4179549;28;20051;-59
2023/01/09 13:47:17;;;;;;;6.28;3.53;;;14.90;84.60;;;;;;4186256;28;20514;-59
2023/01/09 13:50:01;;;;;;;4.07;3.75;;;14.90;85.50;;;;;;4191363;28;20051;-60
2023/01/09 13:52:43;;;;;;;5.50;3.75;;;14.80;84.70;;;;;;4179803;28;20125;-60
2023/01/09 13:55:28;;;;;;;5.47;4.07;;;14.80;84.80;;;;;;4191070;28;20062;-60
2023/01/09 13:58:24;;;;;;;4.82;4.43;;;14.80;84.90;;;;;;4175655;28;20109;-59
2023/01/09 14:01:41;;;;;;;4.35;3.67;;;14.70;84.60;;;;;;4182316;28;20048;-60
2023/01/09 14:04:46;;;;;;;4.97;4.13;;;14.70;84.40;;;;;;4184953;28;20060;-59
2023/01/09 14:07:28;;;;;;;4.90;4.40;;;14.70;84.60;;;;;;4165310;28;20122;-59
2023/01/09 14:10:24;;;;;;;4.03;3.70;;;14.70;84.90;;;;;;4183502;28;20129;-59
2023/01/09 14:13:08;;;;;;;6.13;3.80;;;14.60;84.70;;;;;;4182640;28;20051;-59
2023/01/09 14:15:51;;;;;;;7.93;4.70;;;14.60;85.00;;;;;;4178801;28;20055;-59
2023/01/09 14:18:36;;;;;;;7.57;4.55;;;14.60;85.20;;;;;;4174621;28;20460;-60
2023/01/09 14:21:18;;;;;;;7.00;4.65;;;14.50;85.20;;;;;;4182219;28;20133;-60
2023/01/09 14:24:02;;;;;;;5.20;4.65;;;14.50;86.10;;;;;;4180128;28;20412;-60
2023/01/09 14:26:49;;;;;;;6.85;5.00;;;14.50;85.40;;;;;;4182694;28;20064;-60
2023/01/09 14:29:47;;;;;;;4.63;4.18;;;14.50;85.60;;;;;;4183107;28;20523;-63
2023/01/09 14:32:42;;;;;;;7.13;5.25;;;14.50;85.40;;;;;;4183540;28;20056;-63
2023/01/09 14:35:28;;;;;;;7.75;4.63;;;14.40;85.60;;;;;;4181924;28;20060;-63
2023/01/09 14:38:28;;;;;;;7.25;5.57;;;14.40;85.80;;;;;;4180253;28;20055;-64
2023/01/09 14:41:19;;;;;;;7.88;4.80;;;14.40;85.60;;;;;;4182766;28;20646;-63
2023/01/09 14:44:06;;;;;;;5.17;4.67;;;14.40;85.80;;;;;;4187742;28;20060;-63